Impacts METAR Board
IDs:

KNSI - San Nicholas Island, CA, US

Updated at: 0500 UTC 07 Dec 2022
Potential Impact None Slight Moderate High
Time 06/17Z 06/18Z 06/19Z 06/20Z 06/21Z 06/22Z 06/23Z 07/00Z 07/01Z 07/02Z 07/03Z 07/04Z 07/05Z
Temp56 56 58 59 59 59 58 55 53 52 52 51 51
Dewpt47 47 46 46 45 47 47 48 47 49 49 49 48
Altim30.07 30.09 30.08 30.06 30.04 30.03 30.03 30.04 30.05 30.06 30.06 30.07 30.08
VIS10 10 10 10 10 10 10 10
CIG-- 240 -- -- 220 -- -- -- -- -- -- -- --
CoverSCTBKNSCTSCTBKNSCTSCTSCTCLRCLRCLRCLRCLR
FltCatVFRVFRVFRVFRVFRVFRVFRVFR
WX--------------------------
WDir310320320320310320310300290270290280280
WSpd13 13 13 10 11 10 10 10 9 9 9 8 9
WGst-- -- -- -- -- -- -- -- -- -- -- -- --
Raw hourly METARs
KNSI 061653Z 31013KT 10SM FEW014 FEW160 SCT240 13/08 A3007 RMK AO2 SLP180 T01330083 $
KNSI 061753Z 32013KT 10SM FEW016 SCT160 BKN240 13/08 A3009 RMK AO2 SLP184 T01330083 10144 20106 51011 $
KNSI 061853Z 32013KT 10SM SCT180 SCT240 14/08 A3008 RMK AO2 SLP182 T01440078 $
KNSI 061953Z 32010KT 10SM FEW180 SCT240 15/08 A3006 RMK AO2 SLP177 T01500078 $
KNSI 062053Z 31011KT 10SM FEW160 BKN220 15/07 A3004 RMK AO2 SLP168 T01500072 58016 $
KNSI 062153Z 32010KT 10SM FEW016 FEW160 SCT220 15/08 A3003 RMK AO2 SLP165 T01500083 $
KNSI 062253Z 31010KT 10SM FEW014 FEW160 SCT220 14/08 A3003 RMK AO2 SLP167 T01440083 $
KNSI 062353Z 30010KT 10SM FEW012 SCT018 SCT240 13/09 A3004 RMK AO2 SLP169 T01280089 10156 20128 53001 $
KNSI 070053Z AUTO 29009KT CLR 12/08 A3005 RMK AO2 SLP172 T01170083 PWINO $
KNSI 070153Z AUTO 27009KT CLR 11/09 A3006 RMK AO2 SLP175 T01110094 PWINO $
KNSI 070253Z AUTO 29009KT CLR 11/09 A3006 RMK AO2 SLP176 T01110094 51007 PWINO $
KNSI 070353Z AUTO 28008KT CLR 11/09 A3007 RMK AO2 SLP180 T01060094 PWINO $
KNSI 070453Z AUTO 28009KT CLR 11/09 A3008 RMK AO2 SLP183 T01060089 PWINO $



Page loaded:  05:37 UTC  |   09:37 PM Pacific  |   10:37 PM Mountain  |   11:37 PM Central  |   12:37 AM Eastern

 

ADVISORIES

FORECASTS

FORECASTS

OBSERVATIONS

USER TOOLS

ABOUT US